Angie, Louisiana
Current Conditions -  °F | °C
As of 6:25 PM on Sunday 21 Dec 2014 (Local Time) from KHBG Reporting Station
Overcast Overcast  
Wind Chill: 54°   Ceiling: 900
Heat Index: 54°   Visibility: 7mi
Dew Point: 51°   Wind: 3mph
Humidity: 90%   Direction: 50°NE
Pressure: 30.03"   Gusts: NA
Location:  30.96°N, 89.82°W
Report Text: KHBG 220025Z AUTO 05003KT 7SM BKN009 OVC015 12/11 A3003 RMK AO2 CIG 007V012 T01220106
Loading
Personal Weather Stations






























Interactive Weather Map New forecast layout! Learn more

10-Day Weather Forecast

Advertisements
Track Severe Weather on mobile